sensor_id;sensor_type;location;lat;lon;timestamp;pressure;altitude;pressure_sealevel;temperature;humidity
16806;BME280;8520;50.102;20.010;2022-08-30T00:00:22;98637.28;;;16.21;88.71
16806;BME280;8520;50.102;20.010;2022-08-30T00:03:29;98629.41;;;16.08;88.80
16806;BME280;8520;50.102;20.010;2022-08-30T00:06:21;98642.03;;;16.04;89.34
16806;BME280;8520;50.102;20.010;2022-08-30T00:09:11;98639.50;;;16.06;89.65
16806;BME280;8520;50.102;20.010;2022-08-30T00:12:00;98635.22;;;16.05;89.68
16806;BME280;8520;50.102;20.010;2022-08-30T00:14:50;98635.25;;;16.27;88.14
16806;BME280;8520;50.102;20.010;2022-08-30T00:17:39;98636.78;;;16.39;87.95
16806;BME280;8520;50.102;20.010;2022-08-30T00:20:30;98629.69;;;16.21;88.22
16806;BME280;8520;50.102;20.010;2022-08-30T00:23:20;98637.75;;;16.14;88.25
16806;BME280;8520;50.102;20.010;2022-08-30T00:26:09;98637.97;;;15.99;89.19
16806;BME280;8520;50.102;20.010;2022-08-30T00:28:57;98634.00;;;16.45;87.35
16806;BME280;8520;50.102;20.010;2022-08-30T00:31:46;98632.00;;;16.90;85.75
16806;BME280;8520;50.102;20.010;2022-08-30T00:34:35;98637.00;;;17.25;84.21
16806;BME280;8520;50.102;20.010;2022-08-30T00:37:23;98641.00;;;17.47;83.33
16806;BME280;8520;50.102;20.010;2022-08-30T00:40:14;98635.75;;;17.10;84.66
16806;BME280;8520;50.102;20.010;2022-08-30T00:43:05;98640.38;;;16.85;86.59
16806;BME280;8520;50.102;20.010;2022-08-30T00:46:00;98647.13;;;17.28;84.49
16806;BME280;8520;50.102;20.010;2022-08-30T00:48:50;98629.47;;;17.03;85.47
16806;BME280;8520;50.102;20.010;2022-08-30T00:51:40;98642.88;;;16.71;86.79
16806;BME280;8520;50.102;20.010;2022-08-30T00:54:30;98644.63;;;16.41;88.43
16806;BME280;8520;50.102;20.010;2022-08-30T00:57:20;98644.22;;;15.77;91.61
16806;BME280;8520;50.102;20.010;2022-08-30T01:00:10;98640.50;;;15.43;93.38
16806;BME280;8520;50.102;20.010;2022-08-30T01:02:59;98643.19;;;15.26;94.43
16806;BME280;8520;50.102;20.010;2022-08-30T01:05:48;98637.59;;;15.15;94.65
16806;BME280;8520;50.102;20.010;2022-08-30T01:08:37;98633.19;;;15.40;94.43
16806;BME280;8520;50.102;20.010;2022-08-30T01:11:26;98633.16;;;15.34;94.45
16806;BME280;8520;50.102;20.010;2022-08-30T01:14:17;98632.72;;;15.53;94.11
16806;BME280;8520;50.102;20.010;2022-08-30T01:17:12;98623.34;;;15.39;94.41
16806;BME280;8520;50.102;20.010;2022-08-30T01:20:06;98628.94;;;15.50;93.70
16806;BME280;8520;50.102;20.010;2022-08-30T01:23:04;98627.16;;;16.24;91.12
16806;BME280;8520;50.102;20.010;2022-08-30T01:25:54;98620.09;;;16.39;90.40
16806;BME280;8520;50.102;20.010;2022-08-30T01:28:45;98625.13;;;16.13;91.47
16806;BME280;8520;50.102;20.010;2022-08-30T01:31:35;98622.38;;;16.58;89.36
16806;BME280;8520;50.102;20.010;2022-08-30T01:34:23;98619.84;;;16.99;87.03
16806;BME280;8520;50.102;20.010;2022-08-30T01:37:12;98628.19;;;17.10;86.79
16806;BME280;8520;50.102;20.010;2022-08-30T01:40:04;98618.28;;;17.15;85.99
16806;BME280;8520;50.102;20.010;2022-08-30T01:42:53;98618.81;;;17.08;86.48
16806;BME280;8520;50.102;20.010;2022-08-30T01:45:42;98621.88;;;16.82;87.27
16806;BME280;8520;50.102;20.010;2022-08-30T01:48:31;98622.63;;;16.60;88.50
16806;BME280;8520;50.102;20.010;2022-08-30T01:51:23;98621.09;;;16.19;90.14
16806;BME280;8520;50.102;20.010;2022-08-30T01:54:12;98620.34;;;16.53;89.09
16806;BME280;8520;50.102;20.010;2022-08-30T01:57:02;98621.56;;;16.01;90.74
16806;BME280;8520;50.102;20.010;2022-08-30T01:59:51;98620.75;;;14.82;96.08
16806;BME280;8520;50.102;20.010;2022-08-30T02:02:40;98622.38;;;15.05;95.66
16806;BME280;8520;50.102;20.010;2022-08-30T02:05:29;98624.75;;;15.23;95.00
16806;BME280;8520;50.102;20.010;2022-08-30T02:08:17;98621.31;;;14.91;96.42
16806;BME280;8520;50.102;20.010;2022-08-30T02:11:07;98609.47;;;14.59;97.62
16806;BME280;8520;50.102;20.010;2022-08-30T02:13:57;98613.00;;;14.34;99.41
16806;BME280;8520;50.102;20.010;2022-08-30T02:16:46;98613.22;;;14.30;100.00
16806;BME280;8520;50.102;20.010;2022-08-30T02:19:35;98607.53;;;14.71;97.87
16806;BME280;8520;50.102;20.010;2022-08-30T02:22:24;98616.84;;;14.68;98.51
16806;BME280;8520;50.102;20.010;2022-08-30T02:25:13;98609.47;;;14.59;98.68
16806;BME280;8520;50.102;20.010;2022-08-30T02:28:07;98609.47;;;14.07;100.00
16806;BME280;8520;50.102;20.010;2022-08-30T02:30:57;98617.09;;;14.38;100.00
16806;BME280;8520;50.102;20.010;2022-08-30T02:33:46;98616.09;;;15.04;99.13
16806;BME280;8520;50.102;20.010;2022-08-30T02:36:34;98610.00;;;15.49;95.73
16806;BME280;8520;50.102;20.010;2022-08-30T02:39:23;98599.56;;;16.09;93.03
16806;BME280;8520;50.102;20.010;2022-08-30T02:42:11;98603.63;;;16.08;93.00
16806;BME280;8520;50.102;20.010;2022-08-30T02:45:00;98607.09;;;15.26;95.95
16806;BME280;8520;50.102;20.010;2022-08-30T02:47:52;98610.63;;;15.27;97.56
16806;BME280;8520;50.102;20.010;2022-08-30T02:50:44;98602.53;;;14.75;100.00
16806;BME280;8520;50.102;20.010;2022-08-30T02:53:32;98606.44;;;15.37;98.01
16806;BME280;8520;50.102;20.010;2022-08-30T02:56:22;98601.81;;;15.82;95.19
16806;BME280;8520;50.102;20.010;2022-08-30T02:59:11;98603.91;;;16.27;92.47
16806;BME280;8520;50.102;20.010;2022-08-30T03:02:00;98608.22;;;16.44;90.90
16806;BME280;8520;50.102;20.010;2022-08-30T03:04:50;98605.69;;;16.63;90.08
16806;BME280;8520;50.102;20.010;2022-08-30T03:07:39;98604.94;;;16.57;89.62
16806;BME280;8520;50.102;20.010;2022-08-30T03:10:28;98602.91;;;16.41;90.41
16806;BME280;8520;50.102;20.010;2022-08-30T03:13:16;98605.41;;;16.16;91.44
16806;BME280;8520;50.102;20.010;2022-08-30T03:16:05;98608.97;;;16.39;90.58
16806;BME280;8520;50.102;20.010;2022-08-30T03:18:53;98613.03;;;16.61;89.33
16806;BME280;8520;50.102;20.010;2022-08-30T03:21:43;98614.28;;;16.54;89.18
16806;BME280;8520;50.102;20.010;2022-08-30T03:24:32;98624.56;;;15.86;91.74
16806;BME280;8520;50.102;20.010;2022-08-30T03:27:21;98619.81;;;15.44;92.58
16806;BME280;8520;50.102;20.010;2022-08-30T03:30:10;98626.84;;;14.91;95.93
16806;BME280;8520;50.102;20.010;2022-08-30T03:32:59;98629.94;;;14.41;98.94
16806;BME280;8520;50.102;20.010;2022-08-30T03:35:49;98624.53;;;14.27;100.00
16806;BME280;8520;50.102;20.010;2022-08-30T03:38:39;98621.78;;;14.27;100.00
16806;BME280;8520;50.102;20.010;2022-08-30T03:41:27;98628.38;;;14.35;100.00
16806;BME280;8520;50.102;20.010;2022-08-30T03:44:18;98627.88;;;14.62;99.70
16806;BME280;8520;50.102;20.010;2022-08-30T03:47:07;98633.13;;;14.29;100.00
16806;BME280;8520;50.102;20.010;2022-08-30T03:49:56;98632.97;;;14.12;100.00
16806;BME280;8520;50.102;20.010;2022-08-30T03:52:44;98629.63;;;13.82;100.00
16806;BME280;8520;50.102;20.010;2022-08-30T03:55:34;98634.47;;;14.13;100.00
16806;BME280;8520;50.102;20.010;2022-08-30T03:58:23;98624.91;;;14.14;100.00
16806;BME280;8520;50.102;20.010;2022-08-30T04:01:11;98634.72;;;14.09;100.00
16806;BME280;8520;50.102;20.010;2022-08-30T04:04:00;98635.09;;;14.48;100.00
16806;BME280;8520;50.102;20.010;2022-08-30T04:06:49;98637.31;;;14.18;100.00
16806;BME280;8520;50.102;20.010;2022-08-30T04:09:38;98645.94;;;14.52;100.00
16806;BME280;8520;50.102;20.010;2022-08-30T04:12:29;98642.28;;;14.40;100.00
16806;BME280;8520;50.102;20.010;2022-08-30T04:15:18;98643.47;;;14.28;100.00
16806;BME280;8520;50.102;20.010;2022-08-30T04:18:07;98648.66;;;14.72;99.45
16806;BME280;8520;50.102;20.010;2022-08-30T04:20:58;98646.38;;;14.19;100.00
16806;BME280;8520;50.102;20.010;2022-08-30T04:23:46;98645.94;;;14.52;100.00
16806;BME280;8520;50.102;20.010;2022-08-30T04:26:35;98648.88;;;15.00;99.51
16806;BME280;8520;50.102;20.010;2022-08-30T04:29:24;98653.75;;;15.17;98.00
16806;BME280;8520;50.102;20.010;2022-08-30T04:32:13;98654.00;;;15.61;95.88
16806;BME280;8520;50.102;20.010;2022-08-30T04:35:04;98663.41;;;15.81;93.82
16806;BME280;8520;50.102;20.010;2022-08-30T04:37:55;98659.91;;;15.86;93.74
16806;BME280;8520;50.102;20.010;2022-08-30T04:40:45;98657.00;;;16.40;91.68
16806;BME280;8520;50.102;20.010;2022-08-30T04:43:35;98660.59;;;16.68;90.35
16806;BME280;8520;50.102;20.010;2022-08-30T04:46:24;98664.34;;;16.48;89.34
16806;BME280;8520;50.102;20.010;2022-08-30T04:49:13;98667.16;;;16.71;90.09
16806;BME280;8520;50.102;20.010;2022-08-30T04:52:04;98671.47;;;16.77;89.07
16806;BME280;8520;50.102;20.010;2022-08-30T04:54:55;98680.03;;;16.46;90.12
16806;BME280;8520;50.102;20.010;2022-08-30T04:57:43;98668.13;;;16.34;90.79
16806;BME280;8520;50.102;20.010;2022-08-30T05:00:32;98675.06;;;15.85;92.53
16806;BME280;8520;50.102;20.010;2022-08-30T05:03:22;98681.09;;;15.29;95.59
16806;BME280;8520;50.102;20.010;2022-08-30T05:06:11;98681.19;;;15.52;95.60
16806;BME280;8520;50.102;20.010;2022-08-30T05:08:59;98676.84;;;14.65;99.60
16806;BME280;8520;50.102;20.010;2022-08-30T05:11:48;98673.84;;;15.06;97.73
16806;BME280;8520;50.102;20.010;2022-08-30T05:14:38;98682.06;;;15.63;94.95
16806;BME280;8520;50.102;20.010;2022-08-30T05:17:27;98686.09;;;15.25;97.18
16806;BME280;8520;50.102;20.010;2022-08-30T05:20:16;98675.84;;;15.00;98.42
16806;BME280;8520;50.102;20.010;2022-08-30T05:23:05;98685.13;;;15.34;96.78
16806;BME280;8520;50.102;20.010;2022-08-30T05:25:56;98687.97;;;15.45;96.55
16806;BME280;8520;50.102;20.010;2022-08-30T05:28:45;98686.97;;;15.43;96.11
16806;BME280;8520;50.102;20.010;2022-08-30T05:31:36;98685.34;;;15.25;97.38
16806;BME280;8520;50.102;20.010;2022-08-30T05:34:24;98687.72;;;15.86;94.93
16806;BME280;8520;50.102;20.010;2022-08-30T05:37:14;98686.19;;;15.90;94.42
16806;BME280;8520;50.102;20.010;2022-08-30T05:40:07;98681.72;;;16.10;93.61
16806;BME280;8520;50.102;20.010;2022-08-30T05:42:57;98682.03;;;16.29;92.41
16806;BME280;8520;50.102;20.010;2022-08-30T05:45:46;98681.03;;;16.54;92.06
16806;BME280;8520;50.102;20.010;2022-08-30T05:48:34;98689.19;;;16.97;89.61
16806;BME280;8520;50.102;20.010;2022-08-30T05:51:25;98688.94;;;16.78;89.34
16806;BME280;8520;50.102;20.010;2022-08-30T05:54:18;98693.72;;;16.72;89.24
16806;BME280;8520;50.102;20.010;2022-08-30T05:57:07;98699.81;;;17.04;89.40
16806;BME280;8520;50.102;20.010;2022-08-30T05:59:55;98694.19;;;17.26;87.75
16806;BME280;8520;50.102;20.010;2022-08-30T06:02:45;98699.03;;;17.20;88.74
16806;BME280;8520;50.102;20.010;2022-08-30T06:05:33;98694.38;;;17.62;86.85
16806;BME280;8520;50.102;20.010;2022-08-30T06:08:24;98685.66;;;17.99;85.52
16806;BME280;8520;50.102;20.010;2022-08-30T06:11:15;98701.25;;;18.25;84.78
16806;BME280;8520;50.102;20.010;2022-08-30T06:14:05;98709.44;;;18.11;84.63
16806;BME280;8520;50.102;20.010;2022-08-30T06:16:54;98700.91;;;18.39;84.01
16806;BME280;8520;50.102;20.010;2022-08-30T06:19:43;98708.28;;;18.78;82.72
16806;BME280;8520;50.102;20.010;2022-08-30T06:22:32;98709.00;;;18.84;82.33
16806;BME280;8520;50.102;20.010;2022-08-30T06:25:21;98709.38;;;18.99;81.06
16806;BME280;8520;50.102;20.010;2022-08-30T06:28:11;98712.25;;;18.88;80.94
16806;BME280;8520;50.102;20.010;2022-08-30T06:30:59;98711.81;;;18.84;80.58
16806;BME280;8520;50.102;20.010;2022-08-30T06:33:48;98708.34;;;19.02;80.29
16806;BME280;8520;50.102;20.010;2022-08-30T06:36:37;98712.00;;;19.22;79.52
16806;BME280;8520;50.102;20.010;2022-08-30T06:39:26;98710.72;;;19.23;79.24
16806;BME280;8520;50.102;20.010;2022-08-30T06:42:14;98700.19;;;19.04;80.49
16806;BME280;8520;50.102;20.010;2022-08-30T06:45:07;98714.09;;;19.40;79.14
16806;BME280;8520;50.102;20.010;2022-08-30T06:47:57;98717.59;;;19.71;78.52
16806;BME280;8520;50.102;20.010;2022-08-30T06:50:52;98718.75;;;19.81;77.02
16806;BME280;8520;50.102;20.010;2022-08-30T06:53:40;98710.56;;;20.07;76.92
16806;BME280;8520;50.102;20.010;2022-08-30T06:56:29;98720.69;;;20.29;76.63
16806;BME280;8520;50.102;20.010;2022-08-30T06:59:18;98716.38;;;20.09;79.28
16806;BME280;8520;50.102;20.010;2022-08-30T07:02:08;98726.31;;;20.48;77.20
16806;BME280;8520;50.102;20.010;2022-08-30T07:04:56;98726.94;;;20.60;75.63
16806;BME280;8520;50.102;20.010;2022-08-30T07:07:45;98728.66;;;20.63;75.19
16806;BME280;8520;50.102;20.010;2022-08-30T07:10:36;98726.53;;;21.01;74.15
16806;BME280;8520;50.102;20.010;2022-08-30T07:13:26;98737.19;;;21.02;74.78
16806;BME280;8520;50.102;20.010;2022-08-30T07:16:15;98732.34;;;20.71;76.06
16806;BME280;8520;50.102;20.010;2022-08-30T07:19:05;98739.25;;;21.34;74.88
16806;BME280;8520;50.102;20.010;2022-08-30T07:22:07;98729.38;;;21.14;76.41
16806;BME280;8520;50.102;20.010;2022-08-30T07:24:55;98747.31;;;20.73;75.51
16806;BME280;8520;50.102;20.010;2022-08-30T07:27:43;98741.47;;;20.90;74.38
16806;BME280;8520;50.102;20.010;2022-08-30T07:30:33;98742.28;;;21.04;75.05
16806;BME280;8520;50.102;20.010;2022-08-30T07:33:22;98732.44;;;21.29;73.44
16806;BME280;8520;50.102;20.010;2022-08-30T07:36:12;98736.09;;;21.24;74.87
16806;BME280;8520;50.102;20.010;2022-08-30T07:39:01;98730.69;;;21.58;74.35
16806;BME280;8520;50.102;20.010;2022-08-30T07:41:50;98729.50;;;21.67;73.11
16806;BME280;8520;50.102;20.010;2022-08-30T07:44:38;98736.72;;;21.89;72.48
16806;BME280;8520;50.102;20.010;2022-08-30T07:47:26;98737.25;;;21.61;73.31
16806;BME280;8520;50.102;20.010;2022-08-30T07:50:15;98733.34;;;21.51;74.35
16806;BME280;8520;50.102;20.010;2022-08-30T07:53:05;98730.34;;;22.15;72.63
16806;BME280;8520;50.102;20.010;2022-08-30T07:55:57;98731.13;;;22.50;71.74
16806;BME280;8520;50.102;20.010;2022-08-30T07:58:45;98727.09;;;22.92;70.83
16806;BME280;8520;50.102;20.010;2022-08-30T08:01:34;98717.31;;;22.73;69.54
16806;BME280;8520;50.102;20.010;2022-08-30T08:04:23;98729.44;;;23.02;69.01
16806;BME280;8520;50.102;20.010;2022-08-30T08:07:11;98728.94;;;23.11;68.60
16806;BME280;8520;50.102;20.010;2022-08-30T08:10:02;98730.16;;;23.44;68.21
16806;BME280;8520;50.102;20.010;2022-08-30T08:12:51;98733.50;;;23.63;68.67
16806;BME280;8520;50.102;20.010;2022-08-30T08:15:40;98740.09;;;24.02;66.95
16806;BME280;8520;50.102;20.010;2022-08-30T08:18:29;98740.22;;;23.39;67.91
16806;BME280;8520;50.102;20.010;2022-08-30T08:21:20;98737.13;;;23.71;66.33
16806;BME280;8520;50.102;20.010;2022-08-30T08:24:09;98738.88;;;23.82;66.82
16806;BME280;8520;50.102;20.010;2022-08-30T08:27:00;98735.59;;;23.00;67.73
16806;BME280;8520;50.102;20.010;2022-08-30T08:29:52;98745.22;;;23.54;67.37
16806;BME280;8520;50.102;20.010;2022-08-30T08:32:43;98740.19;;;23.81;66.71
16806;BME280;8520;50.102;20.010;2022-08-30T08:35:33;98730.59;;;23.55;67.59
16806;BME280;8520;50.102;20.010;2022-08-30T08:38:24;98749.38;;;23.32;67.42
16806;BME280;8520;50.102;20.010;2022-08-30T08:41:30;98745.22;;;23.54;67.73
16806;BME280;8520;50.102;20.010;2022-08-30T08:44:42;98751.59;;;22.58;68.83
16806;BME280;8520;50.102;20.010;2022-08-30T08:47:55;98744.34;;;23.38;67.91
16806;BME280;8520;50.102;20.010;2022-08-30T08:50:54;98747.28;;;22.57;69.66
16806;BME280;8520;50.102;20.010;2022-08-30T08:54:10;98741.00;;;23.19;68.15
16806;BME280;8520;50.102;20.010;2022-08-30T08:57:04;98742.91;;;23.45;68.11
16806;BME280;8520;50.102;20.010;2022-08-30T09:00:08;98739.13;;;23.63;66.66
16806;BME280;8520;50.102;20.010;2022-08-30T09:03:05;98741.50;;;24.16;64.86
16806;BME280;8520;50.102;20.010;2022-08-30T09:05:55;98733.50;;;23.63;66.15
16806;BME280;8520;50.102;20.010;2022-08-30T09:08:45;98744.00;;;23.63;67.24
16806;BME280;8520;50.102;20.010;2022-08-30T09:11:34;98740.34;;;23.26;68.13
16806;BME280;8520;50.102;20.010;2022-08-30T09:14:27;98745.38;;;23.48;66.84
16806;BME280;8520;50.102;20.010;2022-08-30T09:17:19;98747.38;;;22.64;70.72
16806;BME280;8520;50.102;20.010;2022-08-30T09:20:08;98745.25;;;23.12;67.98
16806;BME280;8520;50.102;20.010;2022-08-30T09:22:57;98749.84;;;22.34;70.91
16806;BME280;8520;50.102;20.010;2022-08-30T09:25:49;98738.53;;;22.94;68.36
16806;BME280;8520;50.102;20.010;2022-08-30T09:28:44;98740.63;;;22.81;68.35
16806;BME280;8520;50.102;20.010;2022-08-30T09:31:45;98743.63;;;22.14;71.54
16806;BME280;8520;50.102;20.010;2022-08-30T09:34:36;98736.53;;;22.82;70.04
16806;BME280;8520;50.102;20.010;2022-08-30T09:37:28;98731.59;;;23.37;69.12
16806;BME280;8520;50.102;20.010;2022-08-30T09:40:24;98737.81;;;22.47;71.27
16806;BME280;8520;50.102;20.010;2022-08-30T09:43:20;98739.75;;;22.86;71.05
16806;BME280;8520;50.102;20.010;2022-08-30T09:46:11;98746.94;;;22.26;71.57
16806;BME280;8520;50.102;20.010;2022-08-30T09:49:02;98740.72;;;22.54;71.82
16806;BME280;8520;50.102;20.010;2022-08-30T09:52:01;98735.00;;;22.47;69.83
16806;BME280;8520;50.102;20.010;2022-08-30T09:55:08;98732.50;;;22.90;68.67
16806;BME280;8520;50.102;20.010;2022-08-30T09:58:06;98735.78;;;23.44;67.42
16806;BME280;8520;50.102;20.010;2022-08-30T10:01:05;98725.84;;;24.00;65.70
16806;BME280;8520;50.102;20.010;2022-08-30T10:04:01;98729.28;;;23.77;67.90
16806;BME280;8520;50.102;20.010;2022-08-30T10:06:56;98723.13;;;23.09;67.98
16806;BME280;8520;50.102;20.010;2022-08-30T10:09:51;98720.06;;;23.77;64.24
16806;BME280;8520;50.102;20.010;2022-08-30T10:12:55;98722.84;;;24.34;65.05
16806;BME280;8520;50.102;20.010;2022-08-30T10:15:50;98726.25;;;24.48;62.34
16806;BME280;8520;50.102;20.010;2022-08-30T10:18:47;98713.91;;;23.78;64.31
16806;BME280;8520;50.102;20.010;2022-08-30T10:21:42;98711.63;;;24.13;65.16
16806;BME280;8520;50.102;20.010;2022-08-30T10:24:39;98722.44;;;25.12;61.27
16806;BME280;8520;50.102;20.010;2022-08-30T10:27:35;98715.84;;;25.40;60.25
16806;BME280;8520;50.102;20.010;2022-08-30T10:30:26;98709.56;;;24.06;64.33
16806;BME280;8520;50.102;20.010;2022-08-30T10:33:26;98719.03;;;23.38;65.85
16806;BME280;8520;50.102;20.010;2022-08-30T10:36:21;98705.88;;;24.26;64.55
16806;BME280;8520;50.102;20.010;2022-08-30T10:39:16;98713.81;;;23.63;65.83
16806;BME280;8520;50.102;20.010;2022-08-30T10:42:10;98699.97;;;24.53;64.37
16806;BME280;8520;50.102;20.010;2022-08-30T10:45:03;98704.97;;;24.31;64.61
16806;BME280;8520;50.102;20.010;2022-08-30T10:47:58;98703.78;;;24.71;62.60
16806;BME280;8520;50.102;20.010;2022-08-30T10:50:53;98708.63;;;24.55;61.48
16806;BME280;8520;50.102;20.010;2022-08-30T10:53:46;98704.03;;;23.93;62.80
16806;BME280;8520;50.102;20.010;2022-08-30T10:56:38;98692.44;;;24.04;61.62
16806;BME280;8520;50.102;20.010;2022-08-30T10:59:31;98695.25;;;23.96;62.38
16806;BME280;8520;50.102;20.010;2022-08-30T11:02:46;98684.44;;;24.16;61.91
16806;BME280;8520;50.102;20.010;2022-08-30T11:05:54;98685.75;;;23.71;64.06
16806;BME280;8520;50.102;20.010;2022-08-30T11:09:12;98686.81;;;22.77;69.18
16806;BME280;8520;50.102;20.010;2022-08-30T11:12:29;98682.81;;;22.85;69.77
16806;BME280;8520;50.102;20.010;2022-08-30T11:15:29;98688.97;;;23.54;67.32
16806;BME280;8520;50.102;20.010;2022-08-30T11:18:18;98677.50;;;23.73;66.99
16806;BME280;8520;50.102;20.010;2022-08-30T11:21:20;98693.44;;;24.96;64.44
16806;BME280;8520;50.102;20.010;2022-08-30T11:24:12;98694.81;;;25.33;63.06
16806;BME280;8520;50.102;20.010;2022-08-30T11:27:02;98687.56;;;24.04;66.00
16806;BME280;8520;50.102;20.010;2022-08-30T11:29:51;98693.75;;;24.39;64.39
16806;BME280;8520;50.102;20.010;2022-08-30T11:32:59;98686.63;;;24.02;64.85
16806;BME280;8520;50.102;20.010;2022-08-30T11:35:55;98698.78;;;23.89;65.95
16806;BME280;8520;50.102;20.010;2022-08-30T11:39:03;98702.16;;;23.95;64.57
16806;BME280;8520;50.102;20.010;2022-08-30T11:42:10;98692.88;;;23.22;67.24
16806;BME280;8520;50.102;20.010;2022-08-30T11:48:42;98679.13;;;22.90;68.04
16806;BME280;8520;50.102;20.010;2022-08-30T11:51:51;98671.25;;;23.67;65.87
16806;BME280;8520;50.102;20.010;2022-08-30T11:55:26;98676.53;;;24.73;61.36
16806;BME280;8520;50.102;20.010;2022-08-30T11:58:24;98671.44;;;24.64;60.83
16806;BME280;8520;50.102;20.010;2022-08-30T12:01:30;98665.63;;;24.62;61.13
16806;BME280;8520;50.102;20.010;2022-08-30T12:04:44;98662.97;;;24.56;61.78
16806;BME280;8520;50.102;20.010;2022-08-30T12:07:54;98666.03;;;25.04;61.10
16806;BME280;8520;50.102;20.010;2022-08-30T12:10:45;98656.63;;;26.76;57.74
16806;BME280;8520;50.102;20.010;2022-08-30T12:13:51;98650.16;;;26.25;58.44
16806;BME280;8520;50.102;20.010;2022-08-30T12:16:42;98653.63;;;26.08;58.48
16806;BME280;8520;50.102;20.010;2022-08-30T12:19:48;98636.38;;;28.70;53.72
16806;BME280;8520;50.102;20.010;2022-08-30T12:22:37;98633.84;;;28.64;50.70
16806;BME280;8520;50.102;20.010;2022-08-30T12:25:29;98635.28;;;29.58;48.44
16806;BME280;8520;50.102;20.010;2022-08-30T12:28:23;98637.06;;;30.71;47.29
16806;BME280;8520;50.102;20.010;2022-08-30T12:31:15;98633.75;;;31.06;46.34
16806;BME280;8520;50.102;20.010;2022-08-30T12:34:04;98633.59;;;32.11;44.84
16806;BME280;8520;50.102;20.010;2022-08-30T12:36:58;98623.66;;;32.57;43.70
16806;BME280;8520;50.102;20.010;2022-08-30T12:40:00;98631.75;;;31.61;45.99
16806;BME280;8520;50.102;20.010;2022-08-30T12:42:54;98628.69;;;30.64;47.47
16806;BME280;8520;50.102;20.010;2022-08-30T12:45:45;98615.53;;;32.30;44.63
16806;BME280;8520;50.102;20.010;2022-08-30T12:48:38;98609.19;;;33.48;43.46
16806;BME280;8520;50.102;20.010;2022-08-30T12:51:34;98611.53;;;33.52;43.03
16806;BME280;8520;50.102;20.010;2022-08-30T12:54:28;98610.38;;;32.38;43.82
16806;BME280;8520;50.102;20.010;2022-08-30T12:57:34;98605.81;;;33.03;42.35
16806;BME280;8520;50.102;20.010;2022-08-30T13:00:24;98606.94;;;31.73;43.83
16806;BME280;8520;50.102;20.010;2022-08-30T13:03:28;98603.81;;;28.98;47.96
16806;BME280;8520;50.102;20.010;2022-08-30T13:06:35;98596.81;;;29.08;49.14
16806;BME280;8520;50.102;20.010;2022-08-30T13:09:28;98598.97;;;28.81;50.52
16806;BME280;8520;50.102;20.010;2022-08-30T13:12:20;98587.53;;;31.17;45.48
16806;BME280;8520;50.102;20.010;2022-08-30T13:15:12;98565.84;;;30.91;45.33
16806;BME280;8520;50.102;20.010;2022-08-30T13:18:23;98580.03;;;31.00;46.17
16806;BME280;8520;50.102;20.010;2022-08-30T13:21:22;98582.53;;;27.89;50.02
16806;BME280;8520;50.102;20.010;2022-08-30T13:24:12;98586.50;;;26.57;53.78
16806;BME280;8520;50.102;20.010;2022-08-30T13:27:04;98589.53;;;25.86;55.88
16806;BME280;8520;50.102;20.010;2022-08-30T13:29:56;98589.34;;;25.29;57.65
16806;BME280;8520;50.102;20.010;2022-08-30T13:32:44;98580.94;;;26.67;55.28
16806;BME280;8520;50.102;20.010;2022-08-30T13:35:33;98577.00;;;26.37;54.42
16806;BME280;8520;50.102;20.010;2022-08-30T13:38:22;98569.06;;;27.80;52.92
16806;BME280;8520;50.102;20.010;2022-08-30T13:41:10;98570.38;;;29.15;50.17
16806;BME280;8520;50.102;20.010;2022-08-30T13:44:00;98563.09;;;29.51;49.17
16806;BME280;8520;50.102;20.010;2022-08-30T13:46:59;98569.22;;;30.46;47.66
16806;BME280;8520;50.102;20.010;2022-08-30T13:50:08;98571.97;;;31.39;45.65
16806;BME280;8520;50.102;20.010;2022-08-30T13:52:57;98569.16;;;31.51;45.34
16806;BME280;8520;50.102;20.010;2022-08-30T13:55:46;98565.50;;;31.27;45.92
16806;BME280;8520;50.102;20.010;2022-08-30T13:58:34;98553.94;;;30.82;46.09
16806;BME280;8520;50.102;20.010;2022-08-30T14:01:24;98563.69;;;30.39;47.58
16806;BME280;8520;50.102;20.010;2022-08-30T14:04:13;98547.50;;;31.03;46.14
16806;BME280;8520;50.102;20.010;2022-08-30T14:07:02;98555.31;;;31.79;44.73
16806;BME280;8520;50.102;20.010;2022-08-30T14:10:06;98543.50;;;32.29;43.39
16806;BME280;8520;50.102;20.010;2022-08-30T14:13:15;98555.72;;;31.30;44.85
16806;BME280;8520;50.102;20.010;2022-08-30T14:16:05;98546.44;;;32.08;43.66
16806;BME280;8520;50.102;20.010;2022-08-30T14:19:16;98541.88;;;32.14;43.94
16806;BME280;8520;50.102;20.010;2022-08-30T14:22:05;98542.16;;;32.65;42.74
16806;BME280;8520;50.102;20.010;2022-08-30T14:24:54;98546.66;;;32.00;44.54
16806;BME280;8520;50.102;20.010;2022-08-30T14:27:42;98534.09;;;31.37;44.84
16806;BME280;8520;50.102;20.010;2022-08-30T14:30:31;98549.34;;;29.67;46.87
16806;BME280;8520;50.102;20.010;2022-08-30T14:33:20;98534.19;;;28.31;49.13
16806;BME280;8520;50.102;20.010;2022-08-30T14:36:12;98539.94;;;29.45;48.15
16806;BME280;8520;50.102;20.010;2022-08-30T14:39:04;98541.19;;;27.59;51.47
16806;BME280;8520;50.102;20.010;2022-08-30T14:41:55;98527.38;;;28.44;50.31
16806;BME280;8520;50.102;20.010;2022-08-30T14:44:52;98543.00;;;28.08;51.79
16806;BME280;8520;50.102;20.010;2022-08-30T14:47:43;98534.03;;;28.29;51.92
16806;BME280;8520;50.102;20.010;2022-08-30T14:50:33;98530.56;;;26.98;53.81
16806;BME280;8520;50.102;20.010;2022-08-30T14:53:23;98533.41;;;26.73;53.30
16806;BME280;8520;50.102;20.010;2022-08-30T14:56:13;98526.78;;;26.95;54.63
16806;BME280;8520;50.102;20.010;2022-08-30T14:59:05;98531.53;;;26.92;52.09
16806;BME280;8520;50.102;20.010;2022-08-30T15:01:54;98530.44;;;26.71;52.71
16806;BME280;8520;50.102;20.010;2022-08-30T15:04:43;98525.16;;;26.67;51.67
16806;BME280;8520;50.102;20.010;2022-08-30T15:07:35;98531.06;;;26.36;52.02
16806;BME280;8520;50.102;20.010;2022-08-30T15:10:26;98535.72;;;25.36;55.69
16806;BME280;8520;50.102;20.010;2022-08-30T15:13:14;98532.91;;;25.36;56.62
16806;BME280;8520;50.102;20.010;2022-08-30T15:16:09;98529.63;;;25.07;57.51